Time;durP1;ratioP1;P1;durP2;ratioP2;P2;SDS_P1;SDS_P2;PMS_P1;PMS_P2;Temp;Humidity;BMP_temperature;BMP_pressure;BME280_temperature;BME280_humidity;BME280_pressure;Samples;Min_cycle;Max_cycle;Signal;HPM_P1;HPM_P2
2022/06/27 00:01:55;;;;;;;789.07;735.17;;;16.50;99.90;;;;;;4995249;28;20486;-82
2022/06/27 00:04:23;;;;;;;796.90;740.80;;;16.50;99.90;;;;;;4977338;28;20470;-82
2022/06/27 00:06:50;;;;;;;804.97;745.70;;;16.50;99.90;;;;;;4977682;28;20815;-82
2022/06/27 00:09:17;;;;;;;794.43;738.40;;;16.50;99.90;;;;;;4977015;28;20459;-82
2022/06/27 00:11:43;;;;;;;778.63;726.83;;;16.50;99.90;;;;;;4977535;28;20492;-81
2022/06/27 00:14:10;;;;;;;765.23;715.10;;;16.60;99.90;;;;;;4977132;28;20450;-81
2022/06/27 00:16:37;;;;;;;769.97;719.10;;;16.60;99.90;;;;;;4978345;28;20883;-81
2022/06/27 00:19:04;;;;;;;764.13;715.00;;;16.60;99.90;;;;;;4977425;28;20456;-81
2022/06/27 00:21:32;;;;;;;780.23;730.43;;;16.50;99.90;;;;;;4976867;28;20478;-82
2022/06/27 00:23:59;;;;;;;754.90;709.90;;;16.60;99.90;;;;;;4982354;28;20477;-81
2022/06/27 00:26:25;;;;;;;754.77;709.33;;;16.60;99.90;;;;;;4996645;28;20485;-82
2022/06/27 00:28:52;;;;;;;756.93;712.30;;;16.60;99.90;;;;;;4991709;28;20465;-82
2022/06/27 00:31:19;;;;;;;739.40;697.03;;;16.50;99.90;;;;;;4976992;28;20455;-82
2022/06/27 00:33:46;;;;;;;750.67;707.57;;;16.50;99.90;;;;;;4976781;28;20479;-81
2022/06/27 00:36:12;;;;;;;771.50;724.00;;;16.50;99.90;;;;;;4976960;28;20462;-82
2022/06/27 00:38:41;;;;;;;787.40;736.13;;;16.50;99.90;;;;;;4977388;28;20459;-82
2022/06/27 00:41:08;;;;;;;792.90;741.90;;;16.40;99.90;;;;;;4996039;28;20509;-82
2022/06/27 00:43:35;;;;;;;797.00;744.17;;;16.40;99.90;;;;;;4996360;28;20477;-81
2022/06/27 00:46:01;;;;;;;785.40;732.40;;;16.50;99.90;;;;;;4996876;28;20462;-81
2022/06/27 00:48:28;;;;;;;784.43;733.07;;;16.50;99.90;;;;;;4994783;28;20454;-81
2022/06/27 00:50:56;;;;;;;793.67;739.40;;;16.50;99.90;;;;;;4996083;28;20458;-81
2022/06/27 00:53:23;;;;;;;794.37;743.67;;;16.50;99.90;;;;;;4996023;28;20490;-81
2022/06/27 00:55:52;;;;;;;779.37;729.67;;;16.50;99.90;;;;;;4996108;28;20468;-82
2022/06/27 00:58:19;;;;;;;779.73;731.40;;;16.50;99.90;;;;;;4995154;28;20459;-82
2022/06/27 01:00:46;;;;;;;784.33;735.60;;;16.50;99.90;;;;;;4996612;28;20458;-81
2022/06/27 01:03:13;;;;;;;757.77;711.87;;;16.60;99.90;;;;;;4995668;28;20494;-82
2022/06/27 01:05:51;;;;;;;743.33;699.20;;;16.50;99.90;;;;;;4996518;28;20455;-82
2022/06/27 01:08:17;;;;;;;704.00;664.67;;;16.50;99.90;;;;;;4998309;28;20454;-81
2022/06/27 01:10:45;;;;;;;706.20;667.50;;;16.50;99.90;;;;;;4999690;28;20458;-82
2022/06/27 01:13:14;;;;;;;694.00;657.40;;;16.60;99.90;;;;;;4989542;28;20482;-82
2022/06/27 01:15:41;;;;;;;691.73;654.33;;;16.50;99.90;;;;;;4979350;28;20482;-80
2022/06/27 01:18:09;;;;;;;680.00;644.50;;;16.50;99.90;;;;;;4991993;28;20456;-81
2022/06/27 01:20:36;;;;;;;667.37;632.90;;;16.50;99.90;;;;;;4996884;28;20463;-82
2022/06/27 01:23:04;;;;;;;637.73;606.87;;;16.40;99.90;;;;;;4983508;28;20476;-82
2022/06/27 01:25:32;;;;;;;660.07;627.27;;;16.50;99.90;;;;;;4976353;28;20460;-81
2022/06/27 01:27:59;;;;;;;676.57;642.47;;;16.40;99.90;;;;;;4987588;28;20461;-82
2022/06/27 01:30:25;;;;;;;709.77;670.30;;;16.40;99.90;;;;;;4996108;28;20462;-82
2022/06/27 01:32:52;;;;;;;703.97;664.97;;;16.50;99.90;;;;;;4985951;28;20471;-82
2022/06/27 01:35:19;;;;;;;712.90;672.20;;;16.50;99.90;;;;;;4978661;28;20450;-82
2022/06/27 01:37:46;;;;;;;720.27;679.50;;;16.40;99.90;;;;;;4991259;28;20456;-81
2022/06/27 01:40:15;;;;;;;729.40;687.00;;;16.50;99.90;;;;;;4994055;28;20454;-82
2022/06/27 01:42:42;;;;;;;720.00;680.17;;;16.50;99.90;;;;;;4995262;28;20490;-82
2022/06/27 01:45:10;;;;;;;727.80;687.03;;;16.40;99.90;;;;;;4995289;28;20458;-82
2022/06/27 01:47:37;;;;;;;758.00;712.77;;;16.40;99.90;;;;;;4995217;28;20454;-82
2022/06/27 01:50:04;;;;;;;775.03;727.93;;;16.30;99.90;;;;;;4994796;28;20454;-82
2022/06/27 01:52:32;;;;;;;805.43;751.77;;;16.40;99.90;;;;;;4988817;28;20491;-82
2022/06/27 01:54:59;;;;;;;806.63;750.20;;;16.40;99.90;;;;;;4994932;28;20959;-82
2022/06/27 01:57:27;;;;;;;811.90;754.33;;;16.30;99.90;;;;;;4980750;28;20451;-82
2022/06/27 01:59:54;;;;;;;805.17;746.67;;;16.30;99.90;;;;;;4975436;28;20456;-82
2022/06/27 02:02:21;;;;;;;814.13;753.80;;;16.30;99.90;;;;;;4990579;28;20491;-82
2022/06/27 02:04:48;;;;;;;849.47;787.47;;;16.30;99.90;;;;;;4993462;28;20462;-82
2022/06/27 02:07:18;;;;;;;818.57;757.20;;;16.30;99.90;;;;;;4976025;28;20459;-82
2022/06/27 02:09:45;;;;;;;814.63;754.03;;;16.30;99.90;;;;;;4975465;28;20502;-82
2022/06/27 02:12:22;;;;;;;818.97;758.40;;;16.40;99.90;;;;;;4994942;28;20478;-82
2022/06/27 02:14:51;;;;;;;813.47;751.47;;;16.40;99.90;;;;;;4995056;28;20525;-82
2022/06/27 02:17:19;;;;;;;822.73;758.90;;;16.40;99.90;;;;;;4975033;28;20947;-82
2022/06/27 02:19:46;;;;;;;821.87;760.37;;;16.40;99.90;;;;;;4974810;28;20821;-82
2022/06/27 02:22:14;;;;;;;818.37;757.17;;;16.40;99.90;;;;;;4975340;28;20483;-82
2022/06/27 02:24:41;;;;;;;814.47;753.70;;;16.40;99.90;;;;;;4975075;28;20491;-82
2022/06/27 02:27:09;;;;;;;814.63;756.13;;;16.40;99.90;;;;;;4992947;28;20457;-81
2022/06/27 02:29:37;;;;;;;816.83;757.17;;;16.40;99.90;;;;;;4994378;28;20454;-82
2022/06/27 02:32:06;;;;;;;812.33;754.97;;;16.30;99.90;;;;;;4978253;28;20467;-82
2022/06/27 02:34:34;;;;;;;810.30;752.47;;;16.30;99.90;;;;;;4976842;28;20476;-82
2022/06/27 02:37:03;;;;;;;806.93;751.30;;;16.30;99.90;;;;;;4993149;28;20556;-82
2022/06/27 02:39:33;;;;;;;810.47;752.70;;;16.40;99.90;;;;;;4978947;28;20457;-78
2022/06/27 02:42:02;;;;;;;803.50;745.20;;;16.40;99.90;;;;;;4978149;28;20478;-77
2022/06/27 02:44:29;;;;;;;811.23;751.10;;;16.40;99.90;;;;;;4977973;28;20458;-77
2022/06/27 02:46:57;;;;;;;816.70;753.80;;;16.50;99.90;;;;;;4992728;28;20458;-77
2022/06/27 02:49:25;;;;;;;818.37;755.80;;;16.40;99.90;;;;;;4989372;28;20466;-77
2022/06/27 02:52:03;;;;;;;805.03;744.00;;;16.40;99.90;;;;;;4990245;28;20450;-77
2022/06/27 02:54:38;;;;;;;812.90;751.67;;;16.40;99.90;;;;;;4988699;28;20452;-77
2022/06/27 02:57:14;;;;;;;807.00;749.57;;;16.40;99.90;;;;;;4984810;28;20454;-77
2022/06/27 02:59:43;;;;;;;814.03;756.33;;;16.50;99.90;;;;;;4971696;28;20952;-77
2022/06/27 03:02:11;;;;;;;802.67;748.40;;;16.40;99.90;;;;;;4973074;28;20510;-77
2022/06/27 03:04:39;;;;;;;814.93;758.43;;;16.50;99.90;;;;;;4974044;28;20465;-77
2022/06/27 03:07:07;;;;;;;825.53;765.43;;;16.40;99.90;;;;;;4987025;28;20454;-78
2022/06/27 03:09:33;;;;;;;818.17;760.70;;;16.50;99.90;;;;;;4975253;28;20454;-77
2022/06/27 03:12:00;;;;;;;808.70;753.50;;;16.40;99.90;;;;;;4992701;28;20481;-76
2022/06/27 03:14:27;;;;;;;814.40;758.30;;;16.50;99.90;;;;;;4987343;28;20459;-77
2022/06/27 03:16:54;;;;;;;810.83;755.43;;;16.50;99.90;;;;;;4971967;28;20504;-77
2022/06/27 03:19:20;;;;;;;811.37;755.87;;;16.50;99.90;;;;;;4986672;28;20454;-77
2022/06/27 03:21:48;;;;;;;818.83;760.87;;;16.50;99.90;;;;;;4975936;28;20451;-76
2022/06/27 03:24:15;;;;;;;825.33;765.17;;;16.50;99.90;;;;;;4972351;28;20456;-77
2022/06/27 03:26:42;;;;;;;823.53;761.63;;;16.50;99.90;;;;;;4983474;28;20972;-77
2022/06/27 03:29:09;;;;;;;822.70;759.63;;;16.50;99.90;;;;;;4974632;28;20456;-78
2022/06/27 03:31:36;;;;;;;821.07;759.37;;;16.40;99.90;;;;;;4971989;28;20451;-77
2022/06/27 03:34:03;;;;;;;825.93;764.07;;;16.50;99.90;;;;;;4973596;28;20953;-78
2022/06/27 03:36:30;;;;;;;838.17;775.67;;;16.60;99.90;;;;;;4973273;28;20959;-78
2022/06/27 03:38:58;;;;;;;833.33;769.70;;;16.60;99.90;;;;;;4975134;28;20454;-77
2022/06/27 03:41:25;;;;;;;824.60;760.27;;;16.60;99.90;;;;;;4984989;28;20466;-77
2022/06/27 03:43:51;;;;;;;831.30;766.67;;;16.50;99.90;;;;;;4975796;28;20494;-77
2022/06/27 03:46:18;;;;;;;858.07;792.93;;;16.50;99.90;;;;;;4990555;28;20463;-79
2022/06/27 03:51:29;;;;;;;853.77;787.20;;;16.60;99.90;;;;;;4978606;28;20536;-76
2022/06/27 03:53:57;;;;;;;830.93;766.20;;;16.60;99.90;;;;;;4972647;28;20524;-77
2022/06/27 03:56:24;;;;;;;816.87;751.57;;;16.50;99.90;;;;;;4972926;28;20810;-77
2022/06/27 03:58:50;;;;;;;816.63;750.70;;;16.60;99.90;;;;;;4980438;28;20455;-77
2022/06/27 04:01:17;;;;;;;817.77;751.80;;;16.70;99.90;;;;;;4980768;28;20459;-77
2022/06/27 04:03:44;;;;;;;815.90;750.80;;;16.60;99.90;;;;;;4976883;28;20475;-77
2022/06/27 04:06:11;;;;;;;819.03;753.13;;;16.60;99.90;;;;;;4983272;28;20834;-77
2022/06/27 04:08:37;;;;;;;796.93;730.70;;;16.70;99.90;;;;;;4988993;28;20981;-77
2022/06/27 04:11:05;;;;;;;802.87;737.60;;;16.60;99.90;;;;;;4975576;28;20952;-77
2022/06/27 04:13:32;;;;;;;797.27;733.07;;;16.70;99.90;;;;;;4986985;28;20478;-77
2022/06/27 04:15:59;;;;;;;803.57;736.40;;;16.70;99.90;;;;;;4973178;28;20845;-77
2022/06/27 04:18:26;;;;;;;797.87;728.77;;;16.60;99.90;;;;;;4971665;28;20459;-76
2022/06/27 04:20:52;;;;;;;800.47;730.70;;;16.70;99.90;;;;;;4983182;28;20465;-77
2022/06/27 04:23:19;;;;;;;800.90;731.00;;;16.70;99.90;;;;;;4992903;28;20509;-78
2022/06/27 04:25:46;;;;;;;810.70;739.67;;;16.70;99.90;;;;;;4978853;28;20458;-77
2022/06/27 04:28:14;;;;;;;818.57;748.67;;;16.70;99.90;;;;;;4977302;28;20453;-77
2022/06/27 04:30:41;;;;;;;817.80;747.47;;;16.70;99.90;;;;;;4983276;28;20458;-77
2022/06/27 04:33:08;;;;;;;810.43;741.77;;;16.70;99.90;;;;;;4975242;28;20845;-77
2022/06/27 04:35:36;;;;;;;817.60;748.00;;;16.80;99.90;;;;;;4989545;28;20454;-77
2022/06/27 04:38:03;;;;;;;811.47;742.27;;;16.80;99.90;;;;;;4991539;28;20463;-76
2022/06/27 04:40:30;;;;;;;815.83;747.37;;;16.90;99.90;;;;;;4979100;28;20452;-76
2022/06/27 04:42:57;;;;;;;812.03;743.53;;;16.90;99.90;;;;;;4988154;28;20497;-76
2022/06/27 04:45:25;;;;;;;811.97;744.07;;;17.00;99.90;;;;;;4978821;28;20455;-77
2022/06/27 04:47:53;;;;;;;811.70;744.47;;;17.10;99.90;;;;;;4994269;28;20459;-77
2022/06/27 04:50:21;;;;;;;801.33;735.97;;;17.10;99.90;;;;;;4985690;28;20464;-76
2022/06/27 04:52:49;;;;;;;811.77;746.30;;;17.10;99.90;;;;;;4994502;28;20853;-76
2022/06/27 04:55:17;;;;;;;802.13;738.77;;;17.30;99.90;;;;;;4983679;28;20930;-77
2022/06/27 04:57:46;;;;;;;807.10;745.03;;;17.40;99.90;;;;;;4979653;28;20451;-77
2022/06/27 05:00:15;;;;;;;808.87;752.80;;;17.50;99.90;;;;;;4975939;28;20452;-76
2022/06/27 05:02:43;;;;;;;799.80;744.07;;;17.50;99.90;;;;;;4981784;28;20901;-77
2022/06/27 05:05:10;;;;;;;790.10;738.63;;;17.60;99.90;;;;;;4979970;28;20538;-77
2022/06/27 05:07:37;;;;;;;782.83;734.00;;;17.70;99.90;;;;;;4976317;28;20473;-77
2022/06/27 05:10:04;;;;;;;751.73;706.17;;;17.80;99.90;;;;;;4979262;28;20449;-77
2022/06/27 05:12:31;;;;;;;734.50;691.70;;;17.90;99.90;;;;;;4978313;28;20480;-77
2022/06/27 05:14:58;;;;;;;648.87;615.57;;;18.00;99.90;;;;;;4990633;28;20469;-77
2022/06/27 05:17:25;;;;;;;615.30;586.37;;;18.10;99.90;;;;;;4979030;28;20459;-77
2022/06/27 05:25:04;;;;;;;409.00;393.47;;;18.20;99.90;;;;;;5545819;23;20518;-78
2022/06/27 05:27:31;;;;;;;323.77;312.47;;;18.20;99.90;;;;;;4978315;28;20472;-79
2022/06/27 05:29:58;;;;;;;255.83;247.33;;;18.30;99.90;;;;;;4977502;28;20819;-79
2022/06/27 05:32:24;;;;;;;176.43;169.93;;;18.30;99.90;;;;;;4984801;28;20506;-75
2022/06/27 05:34:52;;;;;;;142.97;137.30;;;18.30;99.90;;;;;;4984557;28;20467;-78
2022/06/27 05:37:18;;;;;;;143.27;137.40;;;18.30;99.90;;;;;;4993916;28;20450;-77
2022/06/27 05:39:46;;;;;;;190.43;183.73;;;18.40;99.90;;;;;;4993971;28;20456;-76
2022/06/27 05:42:14;;;;;;;255.00;246.27;;;18.60;99.90;;;;;;4982826;28;20578;-77
2022/06/27 05:44:41;;;;;;;109.63;105.23;;;18.70;99.90;;;;;;4994861;28;20508;-77
2022/06/27 05:47:09;;;;;;;77.47;73.97;;;18.70;99.90;;;;;;4995014;28;20452;-77
2022/06/27 05:49:37;;;;;;;42.63;40.07;;;18.70;99.90;;;;;;4992703;28;20841;-77
2022/06/27 05:52:04;;;;;;;43.37;40.77;;;18.50;99.90;;;;;;4975361;28;20456;-77
2022/06/27 05:54:32;;;;;;;47.00;44.37;;;18.40;99.90;;;;;;4980334;28;20480;-77
2022/06/27 05:56:59;;;;;;;62.53;59.37;;;18.10;99.90;;;;;;4975358;28;20458;-76
2022/06/27 05:59:28;;;;;;;147.07;141.47;;;18.10;99.90;;;;;;4993867;28;20875;-77
2022/06/27 06:01:56;;;;;;;92.47;88.53;;;18.00;99.90;;;;;;4994420;28;20539;-77
2022/06/27 06:04:23;;;;;;;97.17;92.87;;;17.90;99.90;;;;;;4993530;28;20506;-77
2022/06/27 06:06:51;;;;;;;141.47;136.23;;;17.90;99.90;;;;;;4992410;28;20456;-77
2022/06/27 06:09:17;;;;;;;217.33;209.83;;;18.00;99.90;;;;;;4994983;28;20460;-77
2022/06/27 06:11:46;;;;;;;198.50;191.60;;;18.10;99.90;;;;;;4996030;28;20461;-77
2022/06/27 06:14:13;;;;;;;209.27;201.97;;;18.10;99.90;;;;;;4994805;28;20557;-82
2022/06/27 06:16:41;;;;;;;178.37;172.00;;;18.10;99.90;;;;;;4994864;28;20463;-82
2022/06/27 06:19:08;;;;;;;223.00;215.30;;;18.20;99.90;;;;;;4994430;28;20454;-82
2022/06/27 06:21:35;;;;;;;237.27;229.27;;;18.30;99.90;;;;;;4992507;28;20804;-83
2022/06/27 06:24:02;;;;;;;151.90;146.03;;;18.40;99.90;;;;;;4995633;28;20467;-82
2022/06/27 06:26:29;;;;;;;120.93;116.10;;;18.50;99.90;;;;;;4995503;28;20507;-82
2022/06/27 06:28:58;;;;;;;132.23;127.00;;;18.60;99.90;;;;;;4995013;28;20768;-83
2022/06/27 06:31:25;;;;;;;120.60;115.50;;;18.70;99.90;;;;;;4995448;28;20467;-83
2022/06/27 06:33:55;;;;;;;142.57;137.07;;;18.80;99.90;;;;;;4993317;28;20452;-83
2022/06/27 06:36:22;;;;;;;142.33;136.93;;;18.80;99.90;;;;;;4994427;28;20964;-82
2022/06/27 06:38:50;;;;;;;142.23;136.60;;;18.80;99.90;;;;;;4994071;28;20953;-83
2022/06/27 06:41:17;;;;;;;163.17;156.67;;;18.70;99.90;;;;;;4994754;28;20452;-82
2022/06/27 06:43:45;;;;;;;195.77;188.67;;;18.80;99.90;;;;;;4994814;28;20488;-83
2022/06/27 06:46:12;;;;;;;141.53;135.87;;;18.90;99.90;;;;;;4994314;28;20476;-83
2022/06/27 06:48:40;;;;;;;101.47;97.37;;;18.90;99.90;;;;;;4993405;28;20464;-83
2022/06/27 06:51:09;;;;;;;81.33;77.63;;;18.90;99.90;;;;;;4993362;28;20828;-77
2022/06/27 06:53:37;;;;;;;85.73;82.33;;;18.90;99.90;;;;;;4993473;28;20443;-83
2022/06/27 06:56:05;;;;;;;36.87;34.70;;;19.10;99.90;;;;;;4995924;28;21030;-83
2022/06/27 06:58:31;;;;;;;25.60;23.63;;;19.20;99.90;;;;;;4994363;28;20455;-83
2022/06/27 07:00:58;;;;;;;14.33;12.90;;;19.40;99.90;;;;;;4997020;28;20558;-83
2022/06/27 07:03:25;;;;;;;20.33;17.77;;;19.40;99.90;;;;;;4995387;28;20516;-82
2022/06/27 07:05:52;;;;;;;15.23;13.70;;;19.60;99.90;;;;;;4995971;28;20466;-83
2022/06/27 07:08:20;;;;;;;14.60;10.27;;;19.70;99.90;;;;;;4997615;28;20549;-83
2022/06/27 07:10:47;;;;;;;9.37;8.17;;;19.80;99.90;;;;;;4996791;28;20463;-83
2022/06/27 07:13:14;;;;;;;13.10;9.40;;;20.00;99.90;;;;;;4996922;28;20506;-83
2022/06/27 07:15:45;;;;;;;14.33;7.77;;;20.30;99.90;;;;;;4994788;28;20472;-80
2022/06/27 07:18:13;;;;;;;11.80;9.30;;;20.20;97.60;;;;;;4996194;28;20458;-83
2022/06/27 07:20:40;;;;;;;15.07;8.50;;;20.40;98.70;;;;;;4993544;28;20461;-82
2022/06/27 07:23:09;;;;;;;9.80;6.87;;;20.20;97.80;;;;;;4992780;28;20466;-82
2022/06/27 07:25:37;;;;;;;10.73;8.00;;;20.20;98.60;;;;;;4991904;28;20989;-82
2022/06/27 07:28:04;;;;;;;10.83;7.77;;;20.50;96.00;;;;;;4996716;28;20468;-81
2022/06/27 07:30:31;;;;;;;9.40;6.77;;;20.20;96.80;;;;;;4993439;28;20461;-82
2022/06/27 07:32:58;;;;;;;10.07;7.00;;;20.20;96.20;;;;;;4995141;28;20457;-82
2022/06/27 07:35:26;;;;;;;11.23;7.17;;;20.30;96.10;;;;;;4994769;28;20471;-83
2022/06/27 07:37:53;;;;;;;10.40;7.90;;;20.50;96.30;;;;;;4996647;28;20445;-82
2022/06/27 07:40:22;;;;;;;11.33;8.30;;;20.70;95.40;;;;;;4991837;28;20450;-82
2022/06/27 07:42:52;;;;;;;10.80;7.57;;;21.00;95.80;;;;;;4991408;28;20454;-81
2022/06/27 07:45:19;;;;;;;10.43;6.63;;;21.30;95.60;;;;;;4991578;28;20492;-83
2022/06/27 07:47:47;;;;;;;11.50;7.00;;;21.30;90.40;;;;;;4993627;28;20452;-82
2022/06/27 07:50:36;;;;;;;14.47;6.60;;;21.40;88.20;;;;;;4988622;28;20455;-82
2022/06/27 07:53:15;;;;;;;12.60;7.00;;;21.50;90.50;;;;;;4984998;28;20474;-84
2022/06/27 07:55:43;;;;;;;10.77;7.17;;;21.50;89.10;;;;;;5000559;28;20555;-83
2022/06/27 07:58:14;;;;;;;10.73;7.18;;;21.40;90.80;;;;;;5003172;28;20878;-84
2022/06/27 08:00:46;;;;;;;10.40;7.40;;;21.20;90.40;;;;;;5002573;28;20206;-84
2022/06/27 08:06:41;;;;;;;12.63;8.40;;;20.70;90.30;;;;;;4969603;28;20514;-80
2022/06/27 08:09:09;;;;;;;11.20;7.43;;;20.50;90.10;;;;;;4996392;28;20450;-81
2022/06/27 08:11:41;;;;;;;10.50;6.50;;;20.50;92.10;;;;;;4997523;28;20471;-82
2022/06/27 08:14:11;;;;;;;11.47;7.47;;;20.50;93.10;;;;;;4996500;28;20913;-82
2022/06/27 08:16:39;;;;;;;11.07;8.00;;;20.40;93.30;;;;;;4996328;28;20983;-83
2022/06/27 08:19:06;;;;;;;11.30;8.27;;;20.40;92.90;;;;;;5003067;28;20481;-82
2022/06/27 08:21:34;;;;;;;10.37;6.83;;;20.50;93.40;;;;;;5004343;28;20514;-83
2022/06/27 08:24:04;;;;;;;10.20;7.30;;;20.50;92.60;;;;;;5004105;28;20582;-82
2022/06/27 08:26:33;;;;;;;14.33;8.90;;;20.50;92.20;;;;;;5003832;28;20462;-82
2022/06/27 08:29:00;;;;;;;12.23;8.40;;;20.50;92.20;;;;;;5005930;28;20452;-84
2022/06/27 08:31:44;;;;;;;17.80;7.97;;;20.40;92.90;;;;;;5005421;28;20466;-85
2022/06/27 08:34:12;;;;;;;10.67;7.30;;;20.30;92.70;;;;;;4999788;28;20787;-80
2022/06/27 08:36:40;;;;;;;11.20;8.50;;;20.10;93.20;;;;;;4996524;28;20455;-80
2022/06/27 08:39:11;;;;;;;13.70;8.07;;;20.10;93.60;;;;;;4996183;28;20450;-77
2022/06/27 08:41:38;;;;;;;12.90;8.97;;;19.90;92.60;;;;;;4995019;28;20537;-80
2022/06/27 08:44:07;;;;;;;12.17;8.07;;;20.10;92.10;;;;;;4995689;28;20461;-81
2022/06/27 08:46:35;;;;;;;10.70;7.85;;;20.50;91.90;;;;;;4995066;28;20462;-84
2022/06/27 08:49:03;;;;;;;12.20;7.60;;;20.70;92.00;;;;;;4997093;28;20205;-83
2022/06/27 08:51:31;;;;;;;11.50;7.50;;;20.90;90.60;;;;;;4996583;28;20460;-83
2022/06/27 08:53:58;;;;;;;13.47;7.57;;;20.80;86.80;;;;;;4996232;28;20457;-83
2022/06/27 08:56:29;;;;;;;9.50;6.60;;;20.90;87.30;;;;;;4996476;28;20463;-83
2022/06/27 08:58:59;;;;;;;10.43;6.83;;;21.00;87.70;;;;;;4996880;28;20549;-84
2022/06/27 09:01:30;;;;;;;15.10;7.23;;;21.00;87.00;;;;;;4996705;28;20468;-80
2022/06/27 09:04:14;;;;;;;9.20;7.07;;;21.10;90.40;;;;;;4996135;28;20478;-82
2022/06/27 09:06:57;;;;;;;16.30;7.40;;;21.10;87.10;;;;;;4996034;28;20838;-79
2022/06/27 09:09:27;;;;;;;24.43;8.47;;;21.30;87.30;;;;;;4996141;28;20453;-81
2022/06/27 09:11:54;;;;;;;10.13;6.83;;;21.40;87.30;;;;;;4995785;28;20494;-80
2022/06/27 09:14:39;;;;;;;10.70;6.80;;;21.70;84.20;;;;;;4995102;28;20846;-80
2022/06/27 09:17:09;;;;;;;9.43;6.70;;;22.00;86.00;;;;;;4995362;28;20467;-80
2022/06/27 09:19:50;;;;;;;12.03;7.20;;;22.20;82.30;;;;;;4995809;28;20446;-80
2022/06/27 09:22:17;;;;;;;13.70;8.07;;;22.20;78.90;;;;;;4995681;28;20511;-80
2022/06/27 09:25:04;;;;;;;17.30;7.70;;;22.60;79.70;;;;;;4995003;28;20880;-80
2022/06/27 09:27:43;;;;;;;12.97;7.57;;;22.50;80.40;;;;;;4994661;28;20494;-80
2022/06/27 09:30:27;;;;;;;12.60;8.43;;;22.40;80.20;;;;;;4995186;28;20459;-80
2022/06/27 09:32:57;;;;;;;12.53;8.90;;;22.50;77.90;;;;;;4995249;28;20446;-80
2022/06/27 09:35:28;;;;;;;15.03;7.07;;;22.80;78.80;;;;;;4994907;28;20556;-80
2022/06/27 09:37:56;;;;;;;12.80;7.00;;;23.10;75.50;;;;;;4995179;28;20831;-80
2022/06/27 09:40:25;;;;;;;13.53;8.50;;;23.70;74.90;;;;;;4995286;28;20586;-80
2022/06/27 09:42:56;;;;;;;10.43;7.27;;;24.10;73.80;;;;;;4995175;28;20999;-80
2022/06/27 09:45:24;;;;;;;11.30;6.70;;;24.40;71.40;;;;;;4994666;28;20499;-82
2022/06/27 09:47:57;;;;;;;11.53;7.20;;;24.30;67.50;;;;;;4994790;28;20457;-80
2022/06/27 09:50:26;;;;;;;12.40;6.77;;;24.30;67.90;;;;;;4994969;28;20463;-80
2022/06/27 09:52:53;;;;;;;13.90;7.50;;;24.20;69.80;;;;;;4994931;28;20457;-80
2022/06/27 09:55:23;;;;;;;13.37;7.90;;;24.00;67.80;;;;;;4994796;28;20477;-80
2022/06/27 09:57:51;;;;;;;14.00;8.40;;;23.70;69.50;;;;;;4994905;28;20880;-80
2022/06/27 10:00:20;;;;;;;9.87;6.73;;;23.80;67.80;;;;;;4995004;28;20458;-80
2022/06/27 10:02:47;;;;;;;10.93;7.10;;;23.50;69.30;;;;;;4994725;28;20457;-80
2022/06/27 10:05:16;;;;;;;12.90;7.63;;;23.70;72.60;;;;;;4994320;28;20488;-80
2022/06/27 10:07:45;;;;;;;12.87;8.33;;;24.10;68.50;;;;;;4994443;28;20562;-80
2022/06/27 10:10:11;;;;;;;12.77;8.87;;;24.10;66.50;;;;;;4994637;28;20461;-83
2022/06/27 10:12:38;;;;;;;13.57;8.27;;;23.80;68.50;;;;;;4994471;28;20458;-80
2022/06/27 10:15:26;;;;;;;15.00;9.73;;;24.00;69.70;;;;;;4993944;28;20489;-80
2022/06/27 10:17:56;;;;;;;14.50;10.53;;;23.20;66.20;;;;;;4994413;28;20483;-80
2022/06/27 10:20:31;;;;;;;17.43;10.23;;;22.90;68.40;;;;;;4994308;28;20460;-80
2022/06/27 10:23:23;;;;;;;14.60;9.53;;;22.80;72.70;;;;;;4994475;28;20467;-80
2022/06/27 10:25:50;;;;;;;15.90;9.70;;;22.60;72.40;;;;;;4994215;28;20487;-80
2022/06/27 10:28:18;;;;;;;14.60;10.20;;;22.20;72.10;;;;;;4994626;28;20945;-83
2022/06/27 10:30:46;;;;;;;18.07;10.07;;;22.10;75.90;;;;;;4993894;28;20458;-83
2022/06/27 10:33:50;;;;;;;16.40;9.83;;;22.10;77.30;;;;;;4993794;28;20456;-80
2022/06/27 10:36:18;;;;;;;15.77;10.03;;;21.80;76.50;;;;;;4933565;29;20843;-79
2022/06/27 10:38:57;;;;;;;14.53;10.40;;;21.80;79.80;;;;;;4932934;29;20477;-80
2022/06/27 10:41:40;;;;;;;13.27;9.30;;;21.80;80.80;;;;;;4966986;28;20832;-80
2022/06/27 10:44:32;;;;;;;15.80;9.37;;;21.70;81.00;;;;;;4993159;28;20458;-80
2022/06/27 10:46:59;;;;;;;16.70;12.17;;;21.60;80.90;;;;;;4994525;28;20466;-79
2022/06/27 10:49:27;;;;;;;16.00;10.73;;;21.60;80.60;;;;;;4993939;28;20833;-81
2022/06/27 10:52:32;;;;;;;16.07;10.77;;;21.60;80.60;;;;;;4995278;28;20520;-80
2022/06/27 10:55:01;;;;;;;18.93;10.20;;;21.70;81.50;;;;;;4996482;28;20469;-80
2022/06/27 10:57:45;;;;;;;12.33;8.93;;;21.80;79.80;;;;;;4993592;28;20442;-83
2022/06/27 11:00:40;;;;;;;14.93;9.13;;;22.30;77.90;;;;;;4993778;28;20542;-81
2022/06/27 11:03:09;;;;;;;14.20;9.70;;;22.80;72.70;;;;;;4993540;28;20950;-80
2022/06/27 11:06:00;;;;;;;11.40;7.10;;;23.00;72.90;;;;;;4992909;28;20522;-80
2022/06/27 11:08:28;;;;;;;16.27;10.60;;;23.30;70.40;;;;;;4993877;28;20451;-81
2022/06/27 11:10:56;;;;;;;18.40;9.47;;;23.40;68.30;;;;;;4993639;28;20905;-82
2022/06/27 11:13:36;;;;;;;13.73;8.50;;;23.30;63.60;;;;;;4993336;28;20466;-82
2022/06/27 11:16:04;;;;;;;15.73;9.13;;;23.70;63.90;;;;;;4995049;28;20478;-82
2022/06/27 11:18:41;;;;;;;18.23;11.13;;;23.80;61.40;;;;;;4994809;28;20957;-80
2022/06/27 11:21:09;;;;;;;17.20;10.90;;;23.90;62.70;;;;;;4993216;28;20459;-80
2022/06/27 11:23:55;;;;;;;16.37;8.83;;;23.90;60.40;;;;;;4993542;28;20461;-82
2022/06/27 11:26:24;;;;;;;13.33;9.23;;;23.90;59.00;;;;;;4993657;28;20488;-80
2022/06/27 11:34:26;;;;;;;12.93;9.60;;;23.80;60.10;;;;;;4972752;28;20477;-80
2022/06/27 11:36:54;;;;;;;16.50;10.30;;;24.30;58.30;;;;;;4993074;28;20513;-80
2022/06/27 11:39:25;;;;;;;18.47;11.40;;;24.80;56.70;;;;;;4994556;28;20836;-81
2022/06/27 11:41:58;;;;;;;17.00;10.37;;;24.90;55.20;;;;;;4993072;28;20818;-80
2022/06/27 11:44:25;;;;;;;20.83;11.80;;;25.40;54.90;;;;;;4992564;28;20481;-80
2022/06/27 11:46:53;;;;;;;16.53;10.67;;;25.20;52.10;;;;;;4993272;28;20460;-80
2022/06/27 11:49:30;;;;;;;13.63;8.30;;;25.50;51.00;;;;;;4994270;28;20457;-80
2022/06/27 11:52:00;;;;;;;14.77;9.20;;;25.30;49.20;;;;;;4998150;28;20461;-80
2022/06/27 11:54:36;;;;;;;14.77;9.27;;;25.60;46.80;;;;;;4997386;28;20477;-80
2022/06/27 11:57:05;;;;;;;16.03;9.60;;;25.70;45.60;;;;;;4997457;28;20460;-80
2022/06/27 11:59:31;;;;;;;15.00;8.67;;;26.30;44.60;;;;;;4997528;28;20453;-83
2022/06/27 12:02:01;;;;;;;19.33;9.03;;;26.50;42.50;;;;;;4998785;28;20991;-80
2022/06/27 12:04:28;;;;;;;13.50;8.20;;;27.20;39.20;;;;;;4996761;28;20481;-81
2022/06/27 12:06:57;;;;;;;15.20;10.00;;;26.80;33.90;;;;;;4997240;28;20453;-81
2022/06/27 12:09:26;;;;;;;16.37;9.13;;;26.50;39.90;;;;;;4996928;28;20454;-81
2022/06/27 12:12:00;;;;;;;13.70;8.93;;;26.10;36.80;;;;;;4996897;28;20457;-80
2022/06/27 12:14:29;;;;;;;15.03;8.13;;;25.90;37.50;;;;;;4997371;28;20497;-81
2022/06/27 12:16:58;;;;;;;15.07;7.70;;;25.90;40.60;;;;;;4997790;28;20520;-83
2022/06/27 12:19:26;;;;;;;9.40;6.40;;;25.40;43.10;;;;;;4998575;28;20457;-82
2022/06/27 12:21:53;;;;;;;11.80;5.90;;;25.30;43.00;;;;;;4997874;28;20449;-81
2022/06/27 12:24:20;;;;;;;9.23;5.83;;;25.10;40.40;;;;;;4999053;28;20477;-83
2022/06/27 12:26:47;;;;;;;10.57;5.87;;;25.10;38.60;;;;;;4998140;28;20484;-81
2022/06/27 12:29:14;;;;;;;15.10;5.40;;;25.20;41.60;;;;;;4999362;28;20458;-83
2022/06/27 12:31:42;;;;;;;10.97;5.73;;;25.50;38.30;;;;;;4999685;28;20464;-82
2022/06/27 12:34:09;;;;;;;11.13;4.83;;;26.20;37.00;;;;;;4998631;28;20454;-81
2022/06/27 12:36:36;;;;;;;10.70;5.57;;;26.90;32.00;;;;;;4999489;28;20942;-81
2022/06/27 12:39:05;;;;;;;9.80;5.13;;;27.30;32.10;;;;;;4997085;28;20834;-80
2022/06/27 12:41:32;;;;;;;12.13;5.67;;;27.60;31.30;;;;;;4996499;28;20482;-81
2022/06/27 12:43:59;;;;;;;8.17;5.33;;;27.80;29.40;;;;;;4997172;28;20450;-81
2022/06/27 12:46:26;;;;;;;11.80;5.33;;;28.90;27.10;;;;;;4998200;28;20480;-81
2022/06/27 12:48:56;;;;;;;9.20;4.53;;;29.50;22.10;;;;;;4999010;28;20461;-82